createdAt,value
2023-03-29T00:01:07.503Z,100929.80
2023-03-29T00:03:37.106Z,100928.11
2023-03-29T00:06:22.102Z,100924.55
2023-03-29T00:08:54.387Z,100921.88
2023-03-29T00:11:23.362Z,100916.95
2023-03-29T00:13:52.397Z,100912.05
2023-03-29T00:16:20.978Z,100911.95
2023-03-29T00:18:49.366Z,100908.40
2023-03-29T00:21:17.991Z,100912.53
2023-03-29T00:23:46.313Z,100908.64
2023-03-29T00:26:14.704Z,100908.66
2023-03-29T00:28:43.203Z,100909.22
2023-03-29T00:31:15.541Z,100911.48
2023-03-29T00:33:45.289Z,100911.85
2023-03-29T00:36:14.712Z,100912.74
2023-03-29T00:38:43.145Z,100913.80
2023-03-29T00:41:11.896Z,100911.61
2023-03-29T00:43:58.473Z,100906.86
2023-03-29T00:46:30.139Z,100904.15
2023-03-29T00:49:07.232Z,100900.59
2023-03-29T00:51:41.365Z,100899.58
2023-03-29T00:54:15.430Z,100897.70
2023-03-29T00:56:46.566Z,100899.44
2023-03-29T00:59:22.363Z,100898.07
2023-03-29T01:01:58.594Z,100894.83
2023-03-29T01:04:34.105Z,100893.98
2023-03-29T01:07:40.976Z,100895.17
2023-03-29T01:10:19.186Z,100890.09
2023-03-29T01:12:56.363Z,100891.16
2023-03-29T01:15:28.316Z,100884.17
2023-03-29T01:17:58.392Z,100879.90
2023-03-29T01:21:03.173Z,100880.77
2023-03-29T01:24:19.294Z,100876.67
2023-03-29T01:26:57.574Z,100874.97
2023-03-29T01:29:36.870Z,100877.36
2023-03-29T01:32:17.199Z,100876.51
2023-03-29T01:35:10.228Z,100875.14
2023-03-29T01:37:57.277Z,100874.98
2023-03-29T01:40:28.465Z,100874.98
2023-03-29T01:43:31.773Z,100871.40
2023-03-29T01:46:15.469Z,100871.76
2023-03-29T01:49:04.274Z,100868.52
2023-03-29T01:52:11.884Z,100863.40
2023-03-29T01:55:21.841Z,100860.17
2023-03-29T01:57:54.225Z,100859.48
2023-03-29T02:00:27.781Z,100860.02
2023-03-29T02:03:01.702Z,100860.02
2023-03-29T02:05:31.706Z,100860.88
2023-03-29T02:08:02.804Z,100858.83
2023-03-29T02:10:33.139Z,100858.64
2023-03-29T02:13:01.906Z,100860.01
2023-03-29T02:15:30.322Z,100859.17
2023-03-29T02:17:59.390Z,100860.37
2023-03-29T02:20:31.805Z,100856.79
2023-03-29T02:23:23.483Z,100854.05
2023-03-29T02:25:53.759Z,100856.44
2023-03-29T02:28:23.909Z,100856.43
2023-03-29T02:31:36.483Z,100853.87
2023-03-29T02:34:30.111Z,100845.67
2023-03-29T02:37:06.833Z,100847.89
2023-03-29T02:39:37.048Z,100849.41
2023-03-29T02:42:07.561Z,100846.15
2023-03-29T02:44:41.424Z,100844.77
2023-03-29T02:47:19.744Z,100843.56
2023-03-29T02:49:48.164Z,100842.52
2023-03-29T02:52:25.767Z,100837.73
2023-03-29T02:54:55.882Z,100836.51
2023-03-29T02:57:26.679Z,100834.28
2023-03-29T02:59:57.699Z,100835.29
2023-03-29T03:02:26.159Z,100828.28
2023-03-29T03:04:54.678Z,100830.10
2023-03-29T03:07:23.169Z,100829.92
2023-03-29T03:09:51.995Z,100828.70
2023-03-29T03:12:20.341Z,100826.48
2023-03-29T03:15:49.124Z,100821.11
2023-03-29T03:18:17.703Z,100816.31
2023-03-29T03:20:59.301Z,100811.68
2023-03-29T03:23:28.692Z,100811.14
2023-03-29T03:25:57.071Z,100804.80
2023-03-29T03:28:27.404Z,100804.10
2023-03-29T03:30:55.842Z,100801.34
2023-03-29T03:33:24.899Z,100799.59
2023-03-29T03:35:57.175Z,100796.48
2023-03-29T03:38:25.628Z,100797.99
2023-03-29T03:40:59.283Z,100797.10
2023-03-29T03:43:29.105Z,100792.45
2023-03-29T03:45:57.843Z,100785.24
2023-03-29T03:48:26.264Z,100781.63
2023-03-29T03:50:58.236Z,100780.59
2023-03-29T03:53:28.555Z,100778.20
2023-03-29T03:55:56.971Z,100774.95
2023-03-29T03:58:26.134Z,100775.30
2023-03-29T04:00:55.021Z,100777.00
2023-03-29T04:03:24.098Z,100778.70
2023-03-29T04:05:52.848Z,100781.09
2023-03-29T04:08:22.595Z,100780.38
2023-03-29T04:10:56.842Z,100781.73
2023-03-29T04:13:27.064Z,100781.02
2023-03-29T04:15:58.156Z,100777.77
2023-03-29T04:18:28.546Z,100774.01
2023-03-29T04:20:57.112Z,100775.02
2023-03-29T04:23:25.440Z,100773.83
2023-03-29T04:25:56.793Z,100771.24
2023-03-29T04:28:25.151Z,100766.59
2023-03-29T04:30:53.547Z,100763.95
2023-03-29T04:33:21.875Z,100763.06
2023-03-29T04:35:50.278Z,100766.78
2023-03-29T04:38:23.092Z,100765.70
2023-03-29T04:40:51.656Z,100761.52
2023-03-29T04:43:20.327Z,100759.09
2023-03-29T04:45:48.741Z,100755.61
2023-03-29T04:48:17.079Z,100754.00
2023-03-29T04:50:48.476Z,100760.73
2023-03-29T04:53:17.192Z,100760.83
2023-03-29T04:55:47.492Z,100761.24
2023-03-29T04:58:16.216Z,100762.30
2023-03-29T05:00:45.491Z,100763.05
2023-03-29T05:03:14.614Z,100764.13
2023-03-29T05:05:43.649Z,100767.77
2023-03-29T05:08:12.293Z,100766.47
2023-03-29T05:10:44.485Z,100760.02
2023-03-29T05:13:13.005Z,100757.70
2023-03-29T05:15:42.053Z,100753.33
2023-03-29T05:18:10.828Z,100755.14
2023-03-29T05:20:40.569Z,100755.74
2023-03-29T05:23:14.595Z,100756.89
2023-03-29T05:25:44.188Z,100756.13
2023-03-29T05:28:12.950Z,100756.72
2023-03-29T05:30:42.650Z,100755.58
2023-03-29T05:33:11.563Z,100752.73
2023-03-29T05:35:40.104Z,100756.86
2023-03-29T05:38:08.920Z,100753.14
2023-03-29T05:40:37.269Z,100747.52
2023-03-29T05:43:05.846Z,100745.10
2023-03-29T05:45:34.372Z,100751.77
2023-03-29T05:48:04.014Z,100753.00
2023-03-29T05:50:32.762Z,100752.50
2023-03-29T05:53:01.116Z,100750.44
2023-03-29T05:55:29.892Z,100741.86
2023-03-29T05:57:58.224Z,100744.90
2023-03-29T06:00:26.894Z,100746.05
2023-03-29T06:03:06.417Z,100741.33
2023-03-29T06:05:41.880Z,100737.83
2023-03-29T06:08:11.601Z,100737.93
2023-03-29T06:10:41.121Z,100734.25
2023-03-29T06:13:09.514Z,100725.59
2023-03-29T06:15:37.820Z,100727.42
2023-03-29T06:18:06.450Z,100729.27
2023-03-29T06:20:34.925Z,100734.15
2023-03-29T06:23:03.245Z,100730.95
2023-03-29T06:25:32.009Z,100728.71
2023-03-29T06:28:01.084Z,100730.63
2023-03-29T06:30:29.393Z,100733.46
2023-03-29T06:33:01.057Z,100733.70
2023-03-29T06:35:29.485Z,100736.48
2023-03-29T06:37:58.344Z,100735.09
2023-03-29T06:40:27.583Z,100730.57
2023-03-29T06:42:59.956Z,100730.17
2023-03-29T06:45:32.660Z,100732.44
2023-03-29T06:48:03.313Z,100734.96
2023-03-29T06:50:32.104Z,100728.34
2023-03-29T06:53:00.636Z,100729.93
2023-03-29T06:55:29.042Z,100725.84
2023-03-29T06:57:58.269Z,100720.32
2023-03-29T07:00:28.318Z,100718.23
2023-03-29T07:03:00.847Z,100716.13
2023-03-29T07:05:29.346Z,100723.05
2023-03-29T07:08:00.447Z,100718.59
2023-03-29T07:13:30.631Z,100714.56
2023-03-29T07:15:58.956Z,100712.20
2023-03-29T07:18:27.316Z,100706.90
2023-03-29T07:20:55.652Z,100710.36
2023-03-29T07:23:24.029Z,100706.98
2023-03-29T07:25:52.425Z,100703.92
2023-03-29T07:28:20.739Z,100704.50
2023-03-29T07:30:49.756Z,100709.23
2023-03-29T07:33:18.586Z,100715.69
2023-03-29T07:35:47.944Z,100711.73
2023-03-29T07:38:16.391Z,100713.06
2023-03-29T07:40:44.799Z,100719.05
2023-03-29T07:43:13.191Z,100707.18
2023-03-29T07:45:54.147Z,100711.50
2023-03-29T07:48:22.589Z,100711.93
2023-03-29T07:50:50.848Z,100711.14
2023-03-29T07:53:19.141Z,100713.59
2023-03-29T07:55:49.310Z,100715.45
2023-03-29T07:58:18.112Z,100708.02
2023-03-29T08:00:46.459Z,100707.90
2023-03-29T08:03:15.664Z,100705.02
2023-03-29T08:05:44.493Z,100705.39
2023-03-29T08:08:14.904Z,100708.60
2023-03-29T08:10:44.763Z,100711.98
2023-03-29T08:13:13.544Z,100710.84
2023-03-29T08:15:46.830Z,100707.88
2023-03-29T08:18:15.566Z,100703.83
2023-03-29T08:20:44.073Z,100697.13
2023-03-29T08:23:12.451Z,100691.45
2023-03-29T08:25:40.763Z,100691.75
2023-03-29T08:28:09.171Z,100691.34
2023-03-29T08:30:37.532Z,100688.40
2023-03-29T08:33:06.057Z,100680.69
2023-03-29T08:35:34.594Z,100685.13
2023-03-29T08:38:03.184Z,100682.95
2023-03-29T08:40:31.710Z,100677.20
2023-03-29T08:43:26.103Z,100674.86
2023-03-29T08:46:46.972Z,100678.26
2023-03-29T08:49:16.641Z,100675.79
2023-03-29T08:51:58.023Z,100677.13
2023-03-29T08:54:35.005Z,100672.45
2023-03-29T08:57:31.679Z,100670.13
2023-03-29T09:00:05.695Z,100668.05
2023-03-29T09:02:36.173Z,100666.60
2023-03-29T09:05:34.474Z,100664.02
2023-03-29T09:08:02.873Z,100668.62
2023-03-29T09:10:42.446Z,100665.50
2023-03-29T09:13:34.951Z,100666.50
2023-03-29T09:16:37.609Z,100668.87
2023-03-29T09:19:39.403Z,100667.48
2023-03-29T09:22:34.138Z,100663.30
2023-03-29T09:25:26.446Z,100659.11
2023-03-29T09:28:21.129Z,100655.35
2023-03-29T09:31:06.278Z,100648.34
2023-03-29T09:33:48.827Z,100650.38
2023-03-29T09:36:25.070Z,100643.17
2023-03-29T09:38:55.513Z,100641.06
2023-03-29T09:41:48.345Z,100640.55
2023-03-29T09:44:30.717Z,100640.65
2023-03-29T09:47:29.571Z,100640.02
2023-03-29T09:50:05.117Z,100634.64
2023-03-29T09:52:33.611Z,100630.28
2023-03-29T09:55:04.080Z,100628.59
2023-03-29T09:57:33.800Z,100622.54
2023-03-29T10:00:05.786Z,100619.66
2023-03-29T10:02:34.271Z,100614.56
2023-03-29T10:05:06.512Z,100614.02
2023-03-29T10:07:45.184Z,100609.05
2023-03-29T10:10:34.509Z,100610.17
2023-03-29T10:13:13.680Z,100607.11
2023-03-29T10:15:42.090Z,100603.41
2023-03-29T10:18:13.882Z,100602.55
2023-03-29T10:20:42.365Z,100596.27
2023-03-29T10:23:18.538Z,100597.21
2023-03-29T10:25:47.207Z,100594.95
2023-03-29T10:28:21.139Z,100590.86
2023-03-29T10:30:56.333Z,100589.95
2023-03-29T10:33:30.705Z,100584.43
2023-03-29T10:36:01.676Z,100582.55
2023-03-29T10:38:30.262Z,100583.50
2023-03-29T10:41:10.625Z,100579.14
2023-03-29T10:43:46.244Z,100575.09
2023-03-29T10:46:30.615Z,100576.57
2023-03-29T10:49:06.281Z,100574.67
2023-03-29T10:51:34.668Z,100568.19
2023-03-29T10:54:03.877Z,100568.98
2023-03-29T10:56:40.301Z,100567.84
2023-03-29T10:59:57.855Z,100562.84
2023-03-29T11:02:33.847Z,100558.45
2023-03-29T11:05:22.107Z,100553.01
2023-03-29T11:08:29.659Z,100549.80
2023-03-29T11:11:35.285Z,100549.30
2023-03-29T11:14:30.800Z,100543.55
2023-03-29T11:17:02.969Z,100545.54
2023-03-29T11:20:04.901Z,100542.10
2023-03-29T11:22:53.188Z,100538.29
2023-03-29T11:25:54.851Z,100529.37
2023-03-29T11:29:02.800Z,100524.15
2023-03-29T11:32:19.240Z,100523.61
2023-03-29T11:35:20.231Z,100522.86
2023-03-29T11:38:18.169Z,100517.30
2023-03-29T11:41:00.657Z,100515.80
2023-03-29T11:43:49.715Z,100506.16
2023-03-29T11:46:34.079Z,100497.15
2023-03-29T11:49:27.339Z,100492.79
2023-03-29T11:52:04.976Z,100492.02
2023-03-29T11:54:44.944Z,100487.63
2023-03-29T11:57:35.156Z,100479.88
2023-03-29T12:00:24.922Z,100469.95
2023-03-29T12:03:36.983Z,100469.23
2023-03-29T12:06:08.536Z,100464.84
2023-03-29T12:08:51.377Z,100464.25
2023-03-29T12:11:38.675Z,100452.34
2023-03-29T12:14:35.438Z,100450.30
2023-03-29T12:17:11.960Z,100445.64
2023-03-29T12:19:53.377Z,100444.41
2023-03-29T12:22:22.982Z,100443.91
2023-03-29T12:25:00.252Z,100443.96
2023-03-29T12:27:50.565Z,100440.23
2023-03-29T12:30:27.984Z,100447.91
2023-03-29T12:33:30.012Z,100437.42
2023-03-29T12:39:02.333Z,100431.04
2023-03-29T12:41:41.753Z,100423.54
2023-03-29T12:44:15.114Z,100424.20
2023-03-29T12:46:44.247Z,100421.22
2023-03-29T12:49:26.867Z,100413.86
2023-03-29T12:51:58.834Z,100410.73
2023-03-29T12:54:33.568Z,100406.78
2023-03-29T12:57:39.853Z,100410.38
2023-03-29T13:00:37.115Z,100406.61
2023-03-29T13:03:46.606Z,100403.15
2023-03-29T13:06:36.111Z,100404.40
2023-03-29T13:09:22.912Z,100399.54
2023-03-29T13:12:05.822Z,100395.79
2023-03-29T13:14:38.031Z,100393.36
2023-03-29T13:17:52.654Z,100386.52
2023-03-29T13:20:47.903Z,100384.83
2023-03-29T13:23:45.896Z,100378.30
2023-03-29T13:31:03.506Z,100362.81
2023-03-29T13:34:17.180Z,100362.14
2023-03-29T13:37:04.001Z,100361.38
2023-03-29T13:39:36.975Z,100366.64
2023-03-29T13:42:21.945Z,100363.52
2023-03-29T13:48:28.469Z,100361.00
2023-03-29T13:51:08.263Z,100359.25
2023-03-29T13:53:45.735Z,100363.22
2023-03-29T13:56:28.314Z,100364.81
2023-03-29T13:59:38.469Z,100359.21
2023-03-29T14:02:09.400Z,100352.09
2023-03-29T14:04:46.744Z,100346.62
2023-03-29T14:07:18.632Z,100352.74
2023-03-29T14:09:51.017Z,100356.15
2023-03-29T14:12:20.158Z,100355.43
2023-03-29T14:14:58.810Z,100351.92
2023-03-29T14:17:29.066Z,100350.56
2023-03-29T14:20:00.736Z,100348.77
2023-03-29T14:22:33.892Z,100346.37
2023-03-29T14:25:17.126Z,100346.45
2023-03-29T14:27:45.595Z,100347.83
2023-03-29T14:30:28.366Z,100346.98
2023-03-29T14:32:57.062Z,100345.40
2023-03-29T14:35:33.212Z,100353.11
2023-03-29T14:38:04.121Z,100355.38
2023-03-29T14:40:40.222Z,100355.13
2023-03-29T14:43:08.735Z,100355.48
2023-03-29T14:45:38.778Z,100356.13
2023-03-29T14:48:12.258Z,100349.48
2023-03-29T14:50:41.714Z,100344.30
2023-03-29T14:55:54.496Z,100333.33
2023-03-29T14:58:36.571Z,100329.11
2023-03-29T15:01:15.859Z,100319.80
2023-03-29T15:04:06.375Z,100315.28
2023-03-29T15:06:44.278Z,100315.93
2023-03-29T15:09:27.709Z,100305.93
2023-03-29T15:11:59.965Z,100297.17
2023-03-29T15:14:38.106Z,100289.83
2023-03-29T15:17:46.979Z,100290.80
2023-03-29T15:20:26.108Z,100283.16
2023-03-29T15:23:14.851Z,100282.23
2023-03-29T15:25:57.292Z,100282.25
2023-03-29T15:28:32.676Z,100283.53
2023-03-29T15:31:14.560Z,100281.91
2023-03-29T15:33:43.238Z,100279.56
2023-03-29T15:36:14.713Z,100277.98
2023-03-29T15:38:45.135Z,100277.65
2023-03-29T15:41:15.456Z,100277.70
2023-03-29T15:43:43.978Z,100280.59
2023-03-29T15:46:14.115Z,100285.41
2023-03-29T15:48:43.112Z,100294.75
2023-03-29T15:51:13.051Z,100299.48
2023-03-29T15:53:41.732Z,100304.14
2023-03-29T15:56:17.187Z,100300.74
2023-03-29T15:58:46.506Z,100299.39
2023-03-29T16:01:34.765Z,100295.62
2023-03-29T16:04:12.038Z,100293.94
2023-03-29T16:06:41.314Z,100294.42
2023-03-29T16:09:12.004Z,100292.94
2023-03-29T16:11:42.592Z,100293.08
2023-03-29T16:14:27.274Z,100308.32
2023-03-29T16:16:57.299Z,100322.16
2023-03-29T16:19:27.494Z,100319.71
2023-03-29T16:21:57.133Z,100316.94
2023-03-29T16:24:29.860Z,100316.60
2023-03-29T16:26:59.356Z,100318.16
2023-03-29T16:29:28.424Z,100307.91
2023-03-29T16:31:57.379Z,100306.71
2023-03-29T16:34:26.193Z,100309.98
2023-03-29T16:36:54.535Z,100310.92
2023-03-29T16:39:22.897Z,100323.41
2023-03-29T16:41:51.338Z,100327.75
2023-03-29T16:44:23.791Z,100329.33
2023-03-29T16:46:54.404Z,100324.27
2023-03-29T16:49:24.447Z,100318.23
2023-03-29T16:51:52.848Z,100315.62
2023-03-29T16:54:21.259Z,100318.70
2023-03-29T16:56:49.610Z,100316.73
2023-03-29T16:59:18.014Z,100311.15
2023-03-29T17:01:46.977Z,100315.53
2023-03-29T17:04:15.732Z,100306.67
2023-03-29T17:06:44.181Z,100307.20
2023-03-29T17:09:12.662Z,100304.44
2023-03-29T17:11:41.448Z,100302.82
2023-03-29T17:14:10.478Z,100304.20
2023-03-29T17:16:38.875Z,100303.89
2023-03-29T17:19:07.313Z,100301.48
2023-03-29T17:21:35.715Z,100303.80
2023-03-29T17:24:04.355Z,100302.70
2023-03-29T17:26:32.929Z,100303.55
2023-03-29T17:29:01.758Z,100303.11
2023-03-29T17:31:30.849Z,100301.52
2023-03-29T17:33:59.381Z,100306.16
2023-03-29T17:44:03.810Z,100294.94
2023-03-29T17:46:32.359Z,100296.02
2023-03-29T17:49:00.872Z,100293.51
2023-03-29T17:51:29.540Z,100296.49
2023-03-29T17:53:58.344Z,100297.85
2023-03-29T17:56:26.894Z,100293.73
2023-03-29T17:58:55.546Z,100290.01
2023-03-29T18:01:24.032Z,100288.81
2023-03-29T18:03:52.677Z,100284.48
2023-03-29T18:06:21.541Z,100290.02
2023-03-29T18:08:50.579Z,100292.28
2023-03-29T18:11:24.017Z,100296.42
2023-03-29T18:13:53.525Z,100302.54
2023-03-29T18:16:22.267Z,100309.45
2023-03-29T18:18:51.541Z,100310.75
2023-03-29T18:21:21.038Z,100311.55
2023-03-29T18:23:50.007Z,100307.06
2023-03-29T18:26:18.486Z,100312.73
2023-03-29T18:28:47.404Z,100310.96
2023-03-29T18:31:16.390Z,100315.65
2023-03-29T18:33:44.975Z,100310.13
2023-03-29T18:36:14.155Z,100313.73
2023-03-29T18:38:43.824Z,100311.73
2023-03-29T18:41:14.260Z,100313.55
2023-03-29T18:43:44.304Z,100306.98
2023-03-29T18:46:12.792Z,100304.77
2023-03-29T18:48:41.911Z,100297.26
2023-03-29T18:51:12.650Z,100295.40
2023-03-29T18:53:43.094Z,100301.11
2023-03-29T18:56:11.748Z,100301.48
2023-03-29T18:58:40.642Z,100299.52
2023-03-29T19:01:10.770Z,100299.23
2023-03-29T19:03:41.881Z,100295.63
2023-03-29T19:06:11.883Z,100293.83
2023-03-29T19:08:41.535Z,100297.63
2023-03-29T19:11:14.431Z,100304.31
2023-03-29T19:13:43.528Z,100300.39
2023-03-29T19:16:12.370Z,100306.26
2023-03-29T19:18:42.178Z,100301.38
2023-03-29T19:21:10.711Z,100298.63
2023-03-29T19:23:39.359Z,100297.81
2023-03-29T19:26:09.113Z,100299.71
2023-03-29T19:28:37.633Z,100294.04
2023-03-29T19:31:07.243Z,100288.68
2023-03-29T19:33:35.694Z,100292.86
2023-03-29T19:36:06.501Z,100287.27
2023-03-29T19:38:36.184Z,100287.36
2023-03-29T19:41:09.782Z,100287.23
2023-03-29T19:43:38.456Z,100285.24
2023-03-29T19:46:15.673Z,100278.36
2023-03-29T19:48:44.316Z,100278.90
2023-03-29T19:51:12.878Z,100279.00
2023-03-29T19:53:41.882Z,100279.86
2023-03-29T19:56:26.913Z,100273.06
2023-03-29T19:58:55.691Z,100271.89
2023-03-29T20:01:27.617Z,100270.75
2023-03-29T20:03:56.206Z,100269.82
2023-03-29T20:06:25.210Z,100267.72
2023-03-29T20:08:53.923Z,100264.35
2023-03-29T20:11:24.588Z,100263.16
2023-03-29T20:13:52.954Z,100260.02
2023-03-29T20:16:26.557Z,100257.72
2023-03-29T20:18:56.798Z,100257.66
2023-03-29T20:21:25.189Z,100258.84
2023-03-29T20:23:53.538Z,100257.71
2023-03-29T20:26:23.092Z,100256.44
2023-03-29T20:28:52.478Z,100253.64
2023-03-29T20:31:21.183Z,100251.48
2023-03-29T20:33:49.575Z,100249.54
2023-03-29T20:36:18.616Z,100251.33
2023-03-29T20:38:51.456Z,100249.73
2023-03-29T20:41:23.169Z,100246.02
2023-03-29T20:43:58.606Z,100242.20
2023-03-29T20:46:37.858Z,100242.43
2023-03-29T20:49:09.550Z,100241.78
2023-03-29T20:51:39.802Z,100244.55
2023-03-29T20:54:10.072Z,100243.55
2023-03-29T20:56:42.353Z,100245.52
2023-03-29T20:59:11.191Z,100240.80
2023-03-29T21:01:42.850Z,100237.98
2023-03-29T21:04:11.393Z,100237.20
2023-03-29T21:06:39.980Z,100233.63
2023-03-29T21:09:08.594Z,100231.97
2023-03-29T21:11:37.942Z,100228.86
2023-03-29T21:14:06.324Z,100227.84
2023-03-29T21:16:35.567Z,100223.02
2023-03-29T21:19:04.384Z,100216.48
2023-03-29T21:21:34.151Z,100209.42
2023-03-29T21:24:04.146Z,100202.33
2023-03-29T21:26:32.612Z,100201.85
2023-03-29T21:29:01.367Z,100200.22
2023-03-29T21:31:29.792Z,100196.69
2023-03-29T21:33:58.375Z,100192.67
2023-03-29T21:36:26.967Z,100190.30
2023-03-29T21:38:55.957Z,100189.86
2023-03-29T21:41:24.374Z,100189.17
2023-03-29T21:43:52.771Z,100187.87
2023-03-29T21:46:21.332Z,100185.40
2023-03-29T21:48:49.745Z,100182.85
2023-03-29T21:51:18.109Z,100181.48
2023-03-29T21:53:46.595Z,100182.04
2023-03-29T21:56:15.500Z,100179.54
2023-03-29T21:58:44.351Z,100176.59
2023-03-29T22:01:12.853Z,100174.39
2023-03-29T22:03:44.288Z,100176.13
2023-03-29T22:06:14.961Z,100176.17
2023-03-29T22:08:43.425Z,100179.11
2023-03-29T22:11:15.630Z,100176.05
2023-03-29T22:13:45.906Z,100174.04
2023-03-29T22:16:17.177Z,100171.48
2023-03-29T22:18:49.258Z,100167.68
2023-03-29T22:21:37.576Z,100161.16
2023-03-29T22:24:06.192Z,100158.96
2023-03-29T22:26:34.816Z,100158.14
2023-03-29T22:29:03.423Z,100153.73
2023-03-29T22:31:32.610Z,100151.38
2023-03-29T22:34:02.867Z,100150.38
2023-03-29T22:36:31.996Z,100144.80
2023-03-29T22:39:00.760Z,100143.73
2023-03-29T22:41:29.270Z,100136.17
2023-03-29T22:44:09.452Z,100134.50
2023-03-29T22:46:38.113Z,100123.05
2023-03-29T22:49:06.755Z,100128.07
2023-03-29T22:51:35.097Z,100122.58
2023-03-29T22:54:03.763Z,100127.36
2023-03-29T22:56:32.118Z,100124.02
2023-03-29T22:59:00.737Z,100126.35
2023-03-29T23:01:29.112Z,100125.21
2023-03-29T23:03:57.594Z,100126.46
2023-03-29T23:06:26.317Z,100118.92
2023-03-29T23:08:54.616Z,100119.96
2023-03-29T23:11:23.042Z,100118.77
2023-03-29T23:13:52.549Z,100115.39
2023-03-29T23:16:21.059Z,100112.89
2023-03-29T23:18:49.608Z,100113.29
2023-03-29T23:21:18.020Z,100106.08
2023-03-29T23:23:46.469Z,100105.29
2023-03-29T23:26:15.225Z,100102.96
2023-03-29T23:28:44.704Z,100100.45
2023-03-29T23:31:18.396Z,100100.07
2023-03-29T23:33:47.053Z,100101.91
2023-03-29T23:36:18.413Z,100094.75
2023-03-29T23:38:47.040Z,100101.10
2023-03-29T23:41:17.721Z,100103.86
2023-03-29T23:43:47.441Z,100098.38
2023-03-29T23:46:17.630Z,100094.95
2023-03-29T23:48:50.615Z,100094.60
2023-03-29T23:51:22.891Z,100092.99
2023-03-29T23:53:51.789Z,100087.09
2023-03-29T23:56:21.897Z,100091.98
2023-03-29T23:58:50.916Z,100089.45
